createdAt,value
2023-04-14T00:01:26.127Z,2.60
2023-04-14T00:06:27.929Z,2.50
2023-04-14T00:11:29.727Z,2.15
2023-04-14T00:16:31.780Z,2.30
2023-04-14T00:21:33.626Z,1.90
2023-04-14T00:26:35.494Z,2.15
2023-04-14T00:31:37.445Z,2.47
2023-04-14T00:36:39.500Z,2.58
2023-04-14T00:41:41.514Z,2.65
2023-04-14T00:46:43.952Z,2.17
2023-04-14T00:51:47.296Z,1.73
2023-04-14T00:56:54.173Z,2.15
2023-04-14T01:01:57.315Z,2.13
2023-04-14T01:06:59.254Z,1.90
2023-04-14T01:12:26.232Z,2.00
2023-04-14T01:17:39.204Z,1.80
2023-04-14T01:22:59.625Z,2.33
2023-04-14T01:28:32.634Z,2.22
2023-04-14T01:33:38.424Z,2.15
2023-04-14T01:38:43.830Z,2.50
2023-04-14T01:43:50.040Z,2.15
2023-04-14T01:48:52.227Z,2.38
2023-04-14T01:53:56.548Z,2.47
2023-04-14T01:58:59.989Z,2.55
2023-04-14T02:04:03.130Z,2.42
2023-04-14T02:09:10.437Z,2.20
2023-04-14T02:14:13.967Z,2.58
2023-04-14T02:19:20.378Z,2.63
2023-04-14T02:24:23.050Z,2.20
2023-04-14T02:29:26.427Z,2.55
2023-04-14T02:34:33.871Z,2.90
2023-04-14T02:39:43.565Z,2.60
2023-04-14T02:44:50.298Z,2.42
2023-04-14T02:49:54.297Z,2.42
2023-04-14T02:54:59.434Z,2.33
2023-04-14T03:00:02.434Z,2.55
2023-04-14T03:05:07.487Z,2.72
2023-04-14T03:10:20.179Z,2.80
2023-04-14T03:15:24.809Z,2.72
2023-04-14T03:20:27.439Z,2.92
2023-04-14T03:25:33.503Z,2.80
2023-04-14T03:30:41.512Z,3.28
2023-04-14T03:35:46.831Z,4.13
2023-04-14T03:40:50.488Z,4.88
2023-04-14T03:45:57.588Z,3.55
2023-04-14T03:51:02.771Z,3.25
2023-04-14T03:56:06.304Z,3.33
2023-04-14T04:01:08.902Z,4.00
2023-04-14T04:06:11.982Z,4.28
2023-04-14T04:11:18.873Z,3.97
2023-04-14T04:16:22.537Z,3.97
2023-04-14T04:21:27.471Z,3.70
2023-04-14T04:26:29.684Z,3.92
2023-04-14T04:31:33.723Z,4.10
2023-04-14T04:36:36.818Z,4.60
2023-04-14T04:41:38.786Z,4.20
2023-04-14T04:46:46.974Z,4.72
2023-04-14T04:51:50.769Z,4.85
2023-04-14T04:56:54.325Z,3.83
2023-04-14T05:01:56.494Z,4.05
2023-04-14T05:06:58.577Z,4.35
2023-04-14T05:12:00.718Z,4.57
2023-04-14T05:17:02.676Z,4.00
2023-04-14T05:22:04.456Z,5.13
2023-04-14T05:27:14.157Z,6.00
2023-04-14T05:37:18.272Z,5.53
2023-04-14T05:42:20.054Z,6.20
2023-04-14T05:47:22.197Z,4.93
2023-04-14T05:52:24.327Z,5.40
2023-04-14T05:57:26.155Z,5.65
2023-04-14T06:02:28.042Z,5.20
2023-04-14T06:07:30.013Z,5.50
2023-04-14T06:12:31.818Z,4.88
2023-04-14T06:17:34.116Z,5.10
2023-04-14T06:22:35.935Z,5.75
2023-04-14T06:27:37.812Z,7.57
2023-04-14T06:32:39.610Z,7.13
2023-04-14T06:37:41.416Z,5.72
2023-04-14T06:42:43.222Z,6.43
2023-04-14T06:47:45.140Z,6.47
2023-04-14T06:52:46.990Z,6.50
2023-04-14T06:57:48.839Z,6.38
2023-04-14T07:02:50.733Z,5.43
2023-04-14T07:07:52.594Z,6.15
2023-04-14T07:12:54.452Z,5.68
2023-04-14T07:17:59.413Z,5.70
2023-04-14T07:23:01.902Z,4.93
2023-04-14T07:28:05.166Z,4.82
2023-04-14T07:33:07.156Z,4.72
2023-04-14T07:38:08.956Z,4.88
2023-04-14T07:43:11.674Z,4.18
2023-04-14T07:48:14.012Z,4.53
2023-04-14T07:53:16.000Z,3.72
2023-04-14T07:58:17.806Z,3.65
2023-04-14T08:03:19.759Z,3.70
2023-04-14T08:08:21.685Z,3.33
2023-04-14T08:13:23.577Z,3.55
2023-04-14T08:18:25.877Z,3.72
2023-04-14T08:23:27.802Z,3.58
2023-04-14T08:28:29.697Z,3.08
2023-04-14T08:33:31.487Z,3.42
2023-04-14T08:38:33.332Z,3.40
2023-04-14T08:43:38.196Z,3.33
2023-04-14T08:48:40.931Z,3.65
2023-04-14T08:53:45.242Z,4.70
2023-04-14T08:58:47.644Z,5.10
2023-04-14T09:03:50.629Z,4.85
2023-04-14T09:08:53.031Z,5.47
2023-04-14T09:13:56.993Z,4.35
2023-04-14T09:19:07.200Z,4.43
2023-04-14T09:24:12.014Z,3.75
2023-04-14T09:29:14.016Z,3.92
2023-04-14T09:34:21.085Z,3.35
2023-04-14T09:39:22.987Z,3.60
2023-04-14T09:44:24.842Z,3.40
2023-04-14T09:49:27.998Z,3.10
2023-04-14T09:54:30.428Z,3.00
2023-04-14T09:59:37.201Z,3.00
2023-04-14T10:04:39.142Z,3.25
2023-04-14T10:09:41.789Z,3.60
2023-04-14T10:14:44.498Z,2.88
2023-04-14T10:19:46.808Z,3.80
2023-04-14T10:24:49.908Z,3.78
2023-04-14T10:29:52.043Z,3.40
2023-04-14T10:34:58.912Z,3.63
2023-04-14T10:40:05.526Z,4.13
2023-04-14T10:45:08.977Z,4.18
2023-04-14T10:50:16.016Z,3.05
2023-04-14T10:55:24.624Z,2.45
2023-04-14T11:00:29.121Z,2.92
2023-04-14T11:05:34.236Z,3.47
2023-04-14T11:10:36.693Z,2.95
2023-04-14T11:15:57.279Z,2.08
2023-04-14T11:26:10.794Z,3.10
2023-04-14T11:31:15.878Z,2.50
2023-04-14T11:36:17.809Z,2.75
2023-04-14T11:41:21.656Z,2.80
2023-04-14T11:46:23.595Z,2.72
2023-04-14T11:51:30.604Z,2.80
2023-04-14T11:56:33.264Z,2.75
2023-04-14T12:01:35.442Z,2.95
2023-04-14T12:06:39.390Z,3.42
2023-04-14T12:11:41.882Z,2.80
2023-04-14T12:16:43.869Z,2.80
2023-04-14T12:21:53.178Z,3.78
2023-04-14T12:26:56.095Z,3.63
2023-04-14T12:31:58.106Z,3.03
2023-04-14T12:37:05.907Z,3.80
2023-04-14T12:42:08.383Z,3.67
2023-04-14T12:47:10.297Z,4.28
2023-04-14T12:52:41.105Z,3.88
2023-04-14T12:57:43.055Z,4.15
2023-04-14T13:02:46.436Z,3.58
2023-04-14T13:07:48.882Z,3.58
2023-04-14T13:12:50.952Z,3.28
2023-04-14T13:17:52.759Z,4.00
2023-04-14T13:22:54.634Z,3.63
2023-04-14T13:27:56.440Z,3.80
2023-04-14T13:32:58.685Z,3.35
2023-04-14T13:38:01.640Z,3.10
2023-04-14T13:43:04.382Z,3.55
2023-04-14T13:48:06.255Z,3.70
2023-04-14T13:53:08.195Z,3.92
2023-04-14T13:58:10.134Z,3.90
2023-04-14T14:03:12.230Z,3.33
2023-04-14T14:08:15.932Z,3.63
2023-04-14T14:13:18.661Z,3.80
2023-04-14T14:18:20.638Z,4.70
2023-04-14T14:23:22.740Z,3.83
2023-04-14T14:28:24.602Z,3.25
2023-04-14T14:33:26.392Z,3.38
2023-04-14T14:38:28.492Z,3.75
2023-04-14T14:43:30.341Z,3.47
2023-04-14T14:48:32.122Z,3.58
2023-04-14T14:53:34.067Z,2.78
2023-04-14T14:58:36.262Z,3.20
2023-04-14T15:03:38.955Z,4.18
2023-04-14T15:08:41.193Z,4.50
2023-04-14T15:13:43.960Z,3.88
2023-04-14T15:18:45.832Z,3.85
2023-04-14T15:23:47.713Z,3.03
2023-04-14T15:28:49.536Z,3.67
2023-04-14T15:33:51.434Z,3.65
2023-04-14T15:38:53.394Z,4.25
2023-04-14T15:43:55.355Z,4.00
2023-04-14T15:48:57.246Z,4.38
2023-04-14T15:53:59.038Z,4.88
2023-04-14T15:59:01.128Z,4.00
2023-04-14T16:04:03.900Z,3.80
2023-04-14T16:09:06.406Z,3.85
2023-04-14T16:14:08.732Z,4.65
2023-04-14T16:19:10.702Z,4.07
2023-04-14T16:24:12.509Z,4.20
2023-04-14T16:29:14.307Z,4.20
2023-04-14T16:34:18.334Z,4.30
2023-04-14T16:39:22.506Z,3.92
2023-04-14T16:44:24.347Z,4.47
2023-04-14T16:49:26.153Z,4.10
2023-04-14T16:54:27.991Z,4.30
2023-04-14T16:59:31.097Z,4.43
2023-04-14T17:04:33.202Z,4.55
2023-04-14T17:09:35.879Z,4.45
2023-04-14T17:14:38.831Z,4.13
2023-04-14T17:19:41.180Z,3.80
2023-04-14T17:24:44.168Z,4.22
2023-04-14T17:29:46.640Z,3.83
2023-04-14T17:34:49.476Z,4.25
2023-04-14T17:39:53.298Z,4.90
2023-04-14T17:44:55.964Z,4.25
2023-04-14T17:49:57.939Z,3.97
2023-04-14T17:55:00.335Z,4.00
2023-04-14T18:00:04.453Z,4.70
2023-04-14T18:05:14.906Z,4.32
2023-04-14T18:10:18.168Z,4.43
2023-04-14T18:15:20.551Z,4.55
2023-04-14T18:20:25.539Z,4.57
2023-04-14T18:25:28.019Z,4.57
2023-04-14T18:30:30.553Z,5.22
2023-04-14T18:35:33.854Z,5.10
2023-04-14T18:40:38.515Z,5.18
2023-04-14T18:45:45.253Z,4.57
2023-04-14T18:50:47.912Z,5.07
2023-04-14T18:55:50.042Z,4.63
2023-04-14T19:00:52.354Z,4.40
2023-04-14T19:05:55.768Z,4.65
2023-04-14T19:10:59.377Z,4.40
2023-04-14T19:16:09.280Z,4.10
2023-04-14T19:21:11.587Z,3.88
2023-04-14T19:26:13.797Z,4.15
2023-04-14T19:31:20.313Z,3.72
2023-04-14T19:36:22.985Z,4.13
2023-04-14T19:41:25.459Z,4.00
2023-04-14T19:46:28.489Z,3.65
2023-04-14T19:51:32.301Z,3.90
2023-04-14T19:56:35.356Z,3.80
2023-04-14T20:01:38.025Z,4.05
2023-04-14T20:06:41.524Z,4.25
2023-04-14T20:11:43.939Z,3.67
2023-04-14T20:16:46.503Z,3.15
2023-04-14T20:21:49.388Z,3.10
2023-04-14T20:26:51.753Z,2.75
2023-04-14T20:31:54.044Z,3.05
2023-04-14T20:36:56.148Z,2.90
2023-04-14T20:41:58.055Z,2.95
2023-04-14T20:47:00.620Z,3.20
2023-04-14T20:52:02.758Z,3.20
2023-04-14T20:57:05.650Z,3.35
2023-04-14T21:02:08.350Z,3.78
2023-04-14T21:07:10.292Z,3.38
2023-04-14T21:12:14.747Z,3.13
2023-04-14T21:17:18.596Z,3.22
2023-04-14T21:22:20.451Z,2.92
2023-04-14T21:27:22.301Z,2.95
2023-04-14T21:32:24.164Z,3.28
2023-04-14T21:37:26.204Z,3.22
2023-04-14T21:42:27.963Z,2.92
2023-04-14T21:47:29.772Z,3.03
2023-04-14T21:52:31.588Z,2.67
2023-04-14T21:57:48.109Z,2.10
2023-04-14T22:02:51.699Z,2.63
2023-04-14T22:07:53.937Z,2.58
2023-04-14T22:12:55.724Z,2.40
2023-04-14T22:17:58.626Z,2.30
2023-04-14T22:23:00.973Z,2.30
2023-04-14T22:28:02.795Z,1.90
2023-04-14T22:33:04.663Z,1.90
2023-04-14T22:38:07.103Z,1.83
2023-04-14T22:43:09.061Z,1.73
2023-04-14T22:48:11.720Z,2.00
2023-04-14T22:53:13.590Z,2.50
2023-04-14T22:58:17.723Z,1.85
2023-04-14T23:03:19.627Z,1.55
2023-04-14T23:08:21.518Z,1.55
2023-04-14T23:13:23.385Z,1.42
2023-04-14T23:18:27.382Z,1.45
2023-04-14T23:23:30.016Z,1.38
2023-04-14T23:28:31.852Z,1.50
2023-04-14T23:33:33.646Z,1.40
2023-04-14T23:38:35.449Z,1.45
2023-04-14T23:43:37.361Z,1.80
2023-04-14T23:48:39.135Z,1.65
2023-04-14T23:53:41.009Z,1.77
2023-04-14T23:58:43.209Z,1.40
